sensor_id;sensor_type;location;lat;lon;timestamp;P1;durP1;ratioP1;P2;durP2;ratioP2
71975;SDS011;60680;52.182;5.398;2022-09-29T00:00:13;3.38;;;2.03;;
71975;SDS011;60680;52.182;5.398;2022-09-29T00:02:39;4.20;;;2.53;;
71975;SDS011;60680;52.182;5.398;2022-09-29T00:05:06;5.20;;;2.30;;
71975;SDS011;60680;52.182;5.398;2022-09-29T00:07:33;5.50;;;2.00;;
71975;SDS011;60680;52.182;5.398;2022-09-29T00:09:59;3.92;;;2.35;;
71975;SDS011;60680;52.182;5.398;2022-09-29T00:12:26;6.75;;;2.70;;
71975;SDS011;60680;52.182;5.398;2022-09-29T00:14:52;5.60;;;2.75;;
71975;SDS011;60680;52.182;5.398;2022-09-29T00:17:19;3.67;;;2.30;;
71975;SDS011;60680;52.182;5.398;2022-09-29T00:19:46;4.32;;;2.40;;
71975;SDS011;60680;52.182;5.398;2022-09-29T00:22:12;4.57;;;2.50;;
71975;SDS011;60680;52.182;5.398;2022-09-29T00:24:39;6.57;;;2.55;;
71975;SDS011;60680;52.182;5.398;2022-09-29T00:27:05;5.38;;;2.25;;
71975;SDS011;60680;52.182;5.398;2022-09-29T00:29:32;4.73;;;2.30;;
71975;SDS011;60680;52.182;5.398;2022-09-29T00:31:58;4.82;;;2.30;;
71975;SDS011;60680;52.182;5.398;2022-09-29T00:34:25;4.07;;;2.15;;
71975;SDS011;60680;52.182;5.398;2022-09-29T00:36:52;3.35;;;2.30;;
71975;SDS011;60680;52.182;5.398;2022-09-29T00:39:18;4.03;;;2.25;;
71975;SDS011;60680;52.182;5.398;2022-09-29T00:41:45;4.40;;;2.33;;
71975;SDS011;60680;52.182;5.398;2022-09-29T00:46:44;5.00;;;2.47;;
71975;SDS011;60680;52.182;5.398;2022-09-29T00:50:16;5.05;;;2.20;;
71975;SDS011;60680;52.182;5.398;2022-09-29T00:52:11;4.55;;;2.08;;
71975;SDS011;60680;52.182;5.398;2022-09-29T00:54:49;4.53;;;2.53;;
71975;SDS011;60680;52.182;5.398;2022-09-29T00:57:22;4.18;;;2.08;;
71975;SDS011;60680;52.182;5.398;2022-09-29T01:02:19;4.40;;;2.30;;
71975;SDS011;60680;52.182;5.398;2022-09-29T01:04:48;3.80;;;2.10;;
71975;SDS011;60680;52.182;5.398;2022-09-29T01:07:18;4.77;;;2.40;;
71975;SDS011;60680;52.182;5.398;2022-09-29T01:09:47;5.03;;;2.28;;
71975;SDS011;60680;52.182;5.398;2022-09-29T01:12:19;4.00;;;1.98;;
71975;SDS011;60680;52.182;5.398;2022-09-29T01:14:46;3.22;;;2.17;;
71975;SDS011;60680;52.182;5.398;2022-09-29T01:17:13;3.30;;;1.95;;
71975;SDS011;60680;52.182;5.398;2022-09-29T01:22:18;5.47;;;2.80;;
71975;SDS011;60680;52.182;5.398;2022-09-29T01:27:56;5.82;;;2.42;;
71975;SDS011;60680;52.182;5.398;2022-09-29T01:30:39;5.95;;;2.35;;
71975;SDS011;60680;52.182;5.398;2022-09-29T01:36:03;5.63;;;2.30;;
71975;SDS011;60680;52.182;5.398;2022-09-29T01:41:54;6.38;;;2.63;;
71975;SDS011;60680;52.182;5.398;2022-09-29T01:47:02;5.17;;;2.60;;
71975;SDS011;60680;52.182;5.398;2022-09-29T01:49:39;4.85;;;2.47;;
71975;SDS011;60680;52.182;5.398;2022-09-29T01:52:09;5.28;;;2.78;;
71975;SDS011;60680;52.182;5.398;2022-09-29T01:54:44;5.65;;;2.70;;
71975;SDS011;60680;52.182;5.398;2022-09-29T01:57:31;4.20;;;2.45;;
71975;SDS011;60680;52.182;5.398;2022-09-29T02:00:11;6.37;;;2.97;;
71975;SDS011;60680;52.182;5.398;2022-09-29T02:02:49;4.70;;;2.60;;
71975;SDS011;60680;52.182;5.398;2022-09-29T02:06:20;4.85;;;2.67;;
71975;SDS011;60680;52.182;5.398;2022-09-29T02:08:23;5.00;;;2.78;;
71975;SDS011;60680;52.182;5.398;2022-09-29T02:11:02;6.07;;;3.03;;
71975;SDS011;60680;52.182;5.398;2022-09-29T02:13:32;3.70;;;2.43;;
71975;SDS011;60680;52.182;5.398;2022-09-29T02:16:04;4.03;;;2.05;;
71975;SDS011;60680;52.182;5.398;2022-09-29T02:18:43;5.40;;;2.92;;
71975;SDS011;60680;52.182;5.398;2022-09-29T02:21:22;4.95;;;2.53;;
71975;SDS011;60680;52.182;5.398;2022-09-29T02:23:50;3.80;;;2.35;;
71975;SDS011;60680;52.182;5.398;2022-09-29T02:26:18;4.60;;;2.53;;
71975;SDS011;60680;52.182;5.398;2022-09-29T02:28:51;4.75;;;2.78;;
71975;SDS011;60680;52.182;5.398;2022-09-29T02:31:44;4.43;;;2.67;;
71975;SDS011;60680;52.182;5.398;2022-09-29T02:34:20;4.43;;;2.90;;
71975;SDS011;60680;52.182;5.398;2022-09-29T02:36:57;3.97;;;2.30;;
71975;SDS011;60680;52.182;5.398;2022-09-29T02:42:37;4.43;;;2.45;;
71975;SDS011;60680;52.182;5.398;2022-09-29T02:45:48;4.15;;;2.30;;
71975;SDS011;60680;52.182;5.398;2022-09-29T02:51:36;4.20;;;2.75;;
71975;SDS011;60680;52.182;5.398;2022-09-29T02:54:11;4.73;;;2.70;;
71975;SDS011;60680;52.182;5.398;2022-09-29T03:00:04;5.53;;;2.28;;
71975;SDS011;60680;52.182;5.398;2022-09-29T03:02:35;4.50;;;2.65;;
71975;SDS011;60680;52.182;5.398;2022-09-29T03:05:10;5.30;;;2.55;;
71975;SDS011;60680;52.182;5.398;2022-09-29T03:07:38;4.77;;;2.93;;
71975;SDS011;60680;52.182;5.398;2022-09-29T03:10:05;4.85;;;2.70;;
71975;SDS011;60680;52.182;5.398;2022-09-29T03:12:33;5.18;;;2.35;;
71975;SDS011;60680;52.182;5.398;2022-09-29T03:15:00;4.63;;;2.55;;
71975;SDS011;60680;52.182;5.398;2022-09-29T03:17:27;4.85;;;2.63;;
71975;SDS011;60680;52.182;5.398;2022-09-29T03:19:54;4.27;;;2.77;;
71975;SDS011;60680;52.182;5.398;2022-09-29T03:22:23;3.90;;;2.25;;
71975;SDS011;60680;52.182;5.398;2022-09-29T03:24:50;4.35;;;2.65;;
71975;SDS011;60680;52.182;5.398;2022-09-29T03:27:16;4.60;;;2.63;;
71975;SDS011;60680;52.182;5.398;2022-09-29T03:29:43;4.53;;;2.88;;
71975;SDS011;60680;52.182;5.398;2022-09-29T03:32:09;5.80;;;2.80;;
71975;SDS011;60680;52.182;5.398;2022-09-29T03:34:36;5.60;;;2.53;;
71975;SDS011;60680;52.182;5.398;2022-09-29T03:37:03;5.00;;;2.70;;
71975;SDS011;60680;52.182;5.398;2022-09-29T03:39:30;4.65;;;2.55;;
71975;SDS011;60680;52.182;5.398;2022-09-29T03:41:56;3.83;;;2.67;;
71975;SDS011;60680;52.182;5.398;2022-09-29T03:44:22;4.90;;;2.47;;
71975;SDS011;60680;52.182;5.398;2022-09-29T03:46:49;4.97;;;2.53;;
71975;SDS011;60680;52.182;5.398;2022-09-29T03:49:15;4.35;;;2.55;;
71975;SDS011;60680;52.182;5.398;2022-09-29T03:51:43;3.88;;;2.45;;
71975;SDS011;60680;52.182;5.398;2022-09-29T03:54:10;3.85;;;2.40;;
71975;SDS011;60680;52.182;5.398;2022-09-29T03:56:37;4.40;;;2.87;;
71975;SDS011;60680;52.182;5.398;2022-09-29T03:59:04;4.55;;;2.28;;
71975;SDS011;60680;52.182;5.398;2022-09-29T04:01:34;4.65;;;2.33;;
71975;SDS011;60680;52.182;5.398;2022-09-29T04:04:03;5.15;;;2.47;;
71975;SDS011;60680;52.182;5.398;2022-09-29T04:06:31;3.70;;;2.25;;
71975;SDS011;60680;52.182;5.398;2022-09-29T04:08:59;5.03;;;2.43;;
71975;SDS011;60680;52.182;5.398;2022-09-29T04:11:25;4.05;;;2.20;;
71975;SDS011;60680;52.182;5.398;2022-09-29T04:13:52;4.60;;;2.88;;
71975;SDS011;60680;52.182;5.398;2022-09-29T04:16:19;4.90;;;2.60;;
71975;SDS011;60680;52.182;5.398;2022-09-29T04:18:46;5.03;;;3.00;;
71975;SDS011;60680;52.182;5.398;2022-09-29T04:21:12;5.00;;;2.50;;
71975;SDS011;60680;52.182;5.398;2022-09-29T04:23:39;6.15;;;2.40;;
71975;SDS011;60680;52.182;5.398;2022-09-29T04:26:06;5.65;;;3.00;;
71975;SDS011;60680;52.182;5.398;2022-09-29T04:28:34;5.38;;;2.95;;
71975;SDS011;60680;52.182;5.398;2022-09-29T04:31:01;3.92;;;2.33;;
71975;SDS011;60680;52.182;5.398;2022-09-29T04:33:29;3.73;;;2.17;;
71975;SDS011;60680;52.182;5.398;2022-09-29T04:35:56;4.43;;;2.25;;
71975;SDS011;60680;52.182;5.398;2022-09-29T04:38:24;4.68;;;2.70;;
71975;SDS011;60680;52.182;5.398;2022-09-29T04:40:51;3.75;;;2.67;;
71975;SDS011;60680;52.182;5.398;2022-09-29T04:43:17;4.75;;;2.60;;
71975;SDS011;60680;52.182;5.398;2022-09-29T04:45:43;5.90;;;3.10;;
71975;SDS011;60680;52.182;5.398;2022-09-29T04:48:10;4.57;;;2.67;;
71975;SDS011;60680;52.182;5.398;2022-09-29T04:50:36;4.75;;;2.95;;
71975;SDS011;60680;52.182;5.398;2022-09-29T04:53:03;4.50;;;2.75;;
71975;SDS011;60680;52.182;5.398;2022-09-29T04:55:30;6.28;;;2.42;;
71975;SDS011;60680;52.182;5.398;2022-09-29T04:57:56;5.00;;;2.50;;
71975;SDS011;60680;52.182;5.398;2022-09-29T05:00:22;5.38;;;3.20;;
71975;SDS011;60680;52.182;5.398;2022-09-29T05:02:49;5.45;;;3.00;;
71975;SDS011;60680;52.182;5.398;2022-09-29T05:05:16;5.03;;;2.63;;
71975;SDS011;60680;52.182;5.398;2022-09-29T05:07:42;6.15;;;3.03;;
71975;SDS011;60680;52.182;5.398;2022-09-29T05:10:10;5.50;;;2.67;;
71975;SDS011;60680;52.182;5.398;2022-09-29T05:12:37;5.85;;;2.72;;
71975;SDS011;60680;52.182;5.398;2022-09-29T05:15:03;5.03;;;2.97;;
71975;SDS011;60680;52.182;5.398;2022-09-29T05:17:31;3.90;;;2.10;;
71975;SDS011;60680;52.182;5.398;2022-09-29T05:19:57;5.28;;;2.97;;
71975;SDS011;60680;52.182;5.398;2022-09-29T05:22:26;4.40;;;2.40;;
71975;SDS011;60680;52.182;5.398;2022-09-29T05:24:52;5.45;;;2.80;;
71975;SDS011;60680;52.182;5.398;2022-09-29T05:27:19;4.65;;;2.60;;
71975;SDS011;60680;52.182;5.398;2022-09-29T05:29:47;7.18;;;2.75;;
71975;SDS011;60680;52.182;5.398;2022-09-29T05:32:14;4.95;;;2.90;;
71975;SDS011;60680;52.182;5.398;2022-09-29T05:34:40;5.07;;;2.87;;
71975;SDS011;60680;52.182;5.398;2022-09-29T05:37:07;4.82;;;2.83;;
71975;SDS011;60680;52.182;5.398;2022-09-29T05:39:35;4.07;;;2.50;;
71975;SDS011;60680;52.182;5.398;2022-09-29T05:42:03;4.30;;;2.53;;
71975;SDS011;60680;52.182;5.398;2022-09-29T05:44:31;5.10;;;2.80;;
71975;SDS011;60680;52.182;5.398;2022-09-29T05:46:59;5.70;;;2.70;;
71975;SDS011;60680;52.182;5.398;2022-09-29T05:49:26;6.65;;;3.00;;
71975;SDS011;60680;52.182;5.398;2022-09-29T05:51:54;5.18;;;3.15;;
71975;SDS011;60680;52.182;5.398;2022-09-29T05:54:21;5.05;;;2.67;;
71975;SDS011;60680;52.182;5.398;2022-09-29T05:56:49;6.35;;;2.92;;
71975;SDS011;60680;52.182;5.398;2022-09-29T05:59:18;4.73;;;2.70;;
71975;SDS011;60680;52.182;5.398;2022-09-29T06:01:44;4.63;;;2.20;;
71975;SDS011;60680;52.182;5.398;2022-09-29T06:04:11;4.57;;;2.38;;
71975;SDS011;60680;52.182;5.398;2022-09-29T06:06:38;4.03;;;2.60;;
71975;SDS011;60680;52.182;5.398;2022-09-29T06:09:07;4.85;;;2.80;;
71975;SDS011;60680;52.182;5.398;2022-09-29T06:11:35;5.20;;;2.63;;
71975;SDS011;60680;52.182;5.398;2022-09-29T06:14:02;4.82;;;2.92;;
71975;SDS011;60680;52.182;5.398;2022-09-29T06:16:29;5.43;;;2.92;;
71975;SDS011;60680;52.182;5.398;2022-09-29T06:19:00;6.53;;;3.15;;
71975;SDS011;60680;52.182;5.398;2022-09-29T06:21:27;7.22;;;3.35;;
71975;SDS011;60680;52.182;5.398;2022-09-29T06:23:55;8.07;;;3.43;;
71975;SDS011;60680;52.182;5.398;2022-09-29T06:26:23;8.75;;;3.53;;
71975;SDS011;60680;52.182;5.398;2022-09-29T06:28:51;8.48;;;3.53;;
71975;SDS011;60680;52.182;5.398;2022-09-29T06:31:20;17.52;;;3.85;;
71975;SDS011;60680;52.182;5.398;2022-09-29T06:33:49;10.57;;;3.75;;
71975;SDS011;60680;52.182;5.398;2022-09-29T06:39:38;16.45;;;3.38;;
71975;SDS011;60680;52.182;5.398;2022-09-29T06:42:04;10.10;;;3.67;;
71975;SDS011;60680;52.182;5.398;2022-09-29T06:44:31;10.15;;;3.50;;
71975;SDS011;60680;52.182;5.398;2022-09-29T06:46:58;7.28;;;3.10;;
71975;SDS011;60680;52.182;5.398;2022-09-29T06:49:24;7.87;;;2.93;;
71975;SDS011;60680;52.182;5.398;2022-09-29T06:51:51;8.82;;;3.05;;
71975;SDS011;60680;52.182;5.398;2022-09-29T06:54:21;8.45;;;3.30;;
71975;SDS011;60680;52.182;5.398;2022-09-29T06:56:52;7.80;;;2.95;;
71975;SDS011;60680;52.182;5.398;2022-09-29T06:59:20;5.63;;;3.17;;
71975;SDS011;60680;52.182;5.398;2022-09-29T07:01:47;6.87;;;3.07;;
71975;SDS011;60680;52.182;5.398;2022-09-29T07:04:16;7.70;;;2.90;;
71975;SDS011;60680;52.182;5.398;2022-09-29T07:06:44;7.40;;;3.33;;
71975;SDS011;60680;52.182;5.398;2022-09-29T07:09:10;6.93;;;3.35;;
71975;SDS011;60680;52.182;5.398;2022-09-29T07:11:45;7.80;;;3.60;;
71975;SDS011;60680;52.182;5.398;2022-09-29T07:14:14;7.53;;;3.70;;
71975;SDS011;60680;52.182;5.398;2022-09-29T07:16:41;9.75;;;3.80;;
71975;SDS011;60680;52.182;5.398;2022-09-29T07:19:09;6.78;;;4.03;;
71975;SDS011;60680;52.182;5.398;2022-09-29T07:21:35;7.22;;;4.03;;
71975;SDS011;60680;52.182;5.398;2022-09-29T07:24:02;7.70;;;3.83;;
71975;SDS011;60680;52.182;5.398;2022-09-29T07:26:28;9.20;;;3.90;;
71975;SDS011;60680;52.182;5.398;2022-09-29T07:28:55;10.35;;;4.47;;
71975;SDS011;60680;52.182;5.398;2022-09-29T07:31:21;9.88;;;4.97;;
71975;SDS011;60680;52.182;5.398;2022-09-29T07:33:49;7.57;;;4.00;;
71975;SDS011;60680;52.182;5.398;2022-09-29T07:36:17;11.93;;;4.63;;
71975;SDS011;60680;52.182;5.398;2022-09-29T07:38:45;7.53;;;4.40;;
71975;SDS011;60680;52.182;5.398;2022-09-29T07:41:12;11.27;;;5.00;;
71975;SDS011;60680;52.182;5.398;2022-09-29T07:43:39;9.85;;;5.35;;
71975;SDS011;60680;52.182;5.398;2022-09-29T07:46:06;13.20;;;5.50;;
71975;SDS011;60680;52.182;5.398;2022-09-29T07:48:34;13.63;;;6.07;;
71975;SDS011;60680;52.182;5.398;2022-09-29T07:51:09;12.93;;;6.00;;
71975;SDS011;60680;52.182;5.398;2022-09-29T07:53:38;13.55;;;6.75;;
71975;SDS011;60680;52.182;5.398;2022-09-29T07:56:12;15.73;;;7.05;;
71975;SDS011;60680;52.182;5.398;2022-09-29T07:58:40;13.48;;;6.57;;
71975;SDS011;60680;52.182;5.398;2022-09-29T08:01:08;13.10;;;7.28;;
71975;SDS011;60680;52.182;5.398;2022-09-29T08:03:38;17.83;;;8.30;;
71975;SDS011;60680;52.182;5.398;2022-09-29T08:06:06;16.13;;;8.27;;
71975;SDS011;60680;52.182;5.398;2022-09-29T08:08:39;19.17;;;8.88;;
71975;SDS011;60680;52.182;5.398;2022-09-29T08:11:17;18.75;;;9.07;;
71975;SDS011;60680;52.182;5.398;2022-09-29T08:13:56;19.15;;;10.02;;
71975;SDS011;60680;52.182;5.398;2022-09-29T08:16:23;16.90;;;8.87;;
71975;SDS011;60680;52.182;5.398;2022-09-29T08:18:50;18.15;;;10.00;;
71975;SDS011;60680;52.182;5.398;2022-09-29T08:21:16;20.95;;;10.23;;
71975;SDS011;60680;52.182;5.398;2022-09-29T08:23:43;19.30;;;9.73;;
71975;SDS011;60680;52.182;5.398;2022-09-29T08:26:11;20.27;;;10.30;;
71975;SDS011;60680;52.182;5.398;2022-09-29T08:28:40;20.60;;;10.13;;
71975;SDS011;60680;52.182;5.398;2022-09-29T08:31:11;19.00;;;10.00;;
71975;SDS011;60680;52.182;5.398;2022-09-29T08:33:39;20.20;;;9.82;;
71975;SDS011;60680;52.182;5.398;2022-09-29T08:36:07;21.20;;;10.20;;
71975;SDS011;60680;52.182;5.398;2022-09-29T08:38:41;23.02;;;10.45;;
71975;SDS011;60680;52.182;5.398;2022-09-29T08:41:09;20.20;;;10.60;;
71975;SDS011;60680;52.182;5.398;2022-09-29T08:46:30;19.05;;;9.18;;
71975;SDS011;60680;52.182;5.398;2022-09-29T08:49:04;19.15;;;9.68;;
71975;SDS011;60680;52.182;5.398;2022-09-29T08:51:51;20.75;;;9.48;;
71975;SDS011;60680;52.182;5.398;2022-09-29T08:54:31;20.57;;;9.37;;
71975;SDS011;60680;52.182;5.398;2022-09-29T08:57:05;25.17;;;11.32;;
71975;SDS011;60680;52.182;5.398;2022-09-29T08:59:32;19.70;;;10.93;;
71975;SDS011;60680;52.182;5.398;2022-09-29T09:02:02;22.92;;;11.80;;
71975;SDS011;60680;52.182;5.398;2022-09-29T09:15:55;21.75;;;11.60;;
71975;SDS011;60680;52.182;5.398;2022-09-29T09:21:17;23.77;;;11.53;;
71975;SDS011;60680;52.182;5.398;2022-09-29T09:23:54;22.92;;;11.98;;
71975;SDS011;60680;52.182;5.398;2022-09-29T09:26:31;25.73;;;12.30;;
71975;SDS011;60680;52.182;5.398;2022-09-29T09:29:11;23.92;;;11.70;;
71975;SDS011;60680;52.182;5.398;2022-09-29T09:31:53;23.73;;;12.45;;
71975;SDS011;60680;52.182;5.398;2022-09-29T09:34:34;22.63;;;11.93;;
71975;SDS011;60680;52.182;5.398;2022-09-29T09:37:19;23.75;;;12.23;;
71975;SDS011;60680;52.182;5.398;2022-09-29T09:39:54;26.15;;;13.63;;
71975;SDS011;60680;52.182;5.398;2022-09-29T09:42:23;26.25;;;13.23;;
71975;SDS011;60680;52.182;5.398;2022-09-29T09:45:09;25.67;;;13.30;;
71975;SDS011;60680;52.182;5.398;2022-09-29T09:47:41;27.80;;;13.70;;
71975;SDS011;60680;52.182;5.398;2022-09-29T09:50:16;24.55;;;13.57;;
71975;SDS011;60680;52.182;5.398;2022-09-29T09:55:20;25.23;;;13.02;;
71975;SDS011;60680;52.182;5.398;2022-09-29T10:00:48;23.83;;;12.53;;
71975;SDS011;60680;52.182;5.398;2022-09-29T10:03:27;23.63;;;13.18;;
71975;SDS011;60680;52.182;5.398;2022-09-29T10:05:55;23.05;;;13.20;;
71975;SDS011;60680;52.182;5.398;2022-09-29T10:08:27;23.67;;;13.02;;
71975;SDS011;60680;52.182;5.398;2022-09-29T10:11:04;23.73;;;12.95;;
71975;SDS011;60680;52.182;5.398;2022-09-29T10:13:45;22.20;;;12.63;;
71975;SDS011;60680;52.182;5.398;2022-09-29T10:16:17;20.05;;;12.13;;
71975;SDS011;60680;52.182;5.398;2022-09-29T10:18:49;23.08;;;12.95;;
71975;SDS011;60680;52.182;5.398;2022-09-29T10:24:01;25.45;;;12.90;;
71975;SDS011;60680;52.182;5.398;2022-09-29T10:26:34;23.80;;;13.03;;
71975;SDS011;60680;52.182;5.398;2022-09-29T10:32:05;21.00;;;12.05;;
71975;SDS011;60680;52.182;5.398;2022-09-29T10:34:34;20.73;;;11.25;;
71975;SDS011;60680;52.182;5.398;2022-09-29T10:37:25;21.55;;;11.55;;
71975;SDS011;60680;52.182;5.398;2022-09-29T10:40:22;19.93;;;11.90;;
71975;SDS011;60680;52.182;5.398;2022-09-29T10:42:49;17.83;;;9.57;;
71975;SDS011;60680;52.182;5.398;2022-09-29T10:45:20;17.90;;;9.75;;
71975;SDS011;60680;52.182;5.398;2022-09-29T10:50:28;19.55;;;10.20;;
71975;SDS011;60680;52.182;5.398;2022-09-29T10:53:03;17.83;;;9.60;;
71975;SDS011;60680;52.182;5.398;2022-09-29T10:55:49;15.30;;;8.27;;
71975;SDS011;60680;52.182;5.398;2022-09-29T10:58:32;15.13;;;8.40;;
71975;SDS011;60680;52.182;5.398;2022-09-29T11:01:25;18.60;;;10.13;;
71975;SDS011;60680;52.182;5.398;2022-09-29T11:03:55;22.75;;;10.57;;
71975;SDS011;60680;52.182;5.398;2022-09-29T11:06:32;15.23;;;8.50;;
71975;SDS011;60680;52.182;5.398;2022-09-29T11:11:35;13.60;;;7.40;;
71975;SDS011;60680;52.182;5.398;2022-09-29T11:14:03;18.90;;;8.45;;
71975;SDS011;60680;52.182;5.398;2022-09-29T11:16:35;14.88;;;6.78;;
71975;SDS011;60680;52.182;5.398;2022-09-29T11:19:10;15.33;;;6.97;;
71975;SDS011;60680;52.182;5.398;2022-09-29T11:24:40;10.88;;;6.90;;
71975;SDS011;60680;52.182;5.398;2022-09-29T11:44:03;5.53;;;2.88;;
71975;SDS011;60680;52.182;5.398;2022-09-29T11:47:01;5.60;;;3.73;;
71975;SDS011;60680;52.182;5.398;2022-09-29T12:00:49;7.47;;;3.77;;
71975;SDS011;60680;52.182;5.398;2022-09-29T12:06:33;6.90;;;2.75;;
71975;SDS011;60680;52.182;5.398;2022-09-29T12:11:59;7.15;;;2.85;;
71975;SDS011;60680;52.182;5.398;2022-09-29T12:17:53;5.88;;;2.13;;
71975;SDS011;60680;52.182;5.398;2022-09-29T12:20:28;4.43;;;1.80;;
71975;SDS011;60680;52.182;5.398;2022-09-29T12:23:00;4.03;;;1.50;;
71975;SDS011;60680;52.182;5.398;2022-09-29T12:25:32;4.35;;;1.67;;
71975;SDS011;60680;52.182;5.398;2022-09-29T12:28:13;5.03;;;1.80;;
71975;SDS011;60680;52.182;5.398;2022-09-29T12:33:19;3.60;;;1.90;;
71975;SDS011;60680;52.182;5.398;2022-09-29T12:38:32;4.07;;;2.10;;
71975;SDS011;60680;52.182;5.398;2022-09-29T12:48:49;4.05;;;1.95;;
71975;SDS011;60680;52.182;5.398;2022-09-29T12:51:30;3.60;;;2.08;;
71975;SDS011;60680;52.182;5.398;2022-09-29T12:54:05;4.10;;;2.13;;
71975;SDS011;60680;52.182;5.398;2022-09-29T12:56:47;3.88;;;1.92;;
71975;SDS011;60680;52.182;5.398;2022-09-29T13:07:56;4.43;;;1.50;;
71975;SDS011;60680;52.182;5.398;2022-09-29T13:16:12;3.15;;;1.02;;
71975;SDS011;60680;52.182;5.398;2022-09-29T13:28:41;2.10;;;1.08;;
71975;SDS011;60680;52.182;5.398;2022-09-29T13:31:06;3.38;;;1.02;;
71975;SDS011;60680;52.182;5.398;2022-09-29T13:33:36;2.70;;;0.80;;
71975;SDS011;60680;52.182;5.398;2022-09-29T13:36:03;1.83;;;0.50;;
71975;SDS011;60680;52.182;5.398;2022-09-29T13:38:35;2.13;;;0.95;;
71975;SDS011;60680;52.182;5.398;2022-09-29T13:41:08;2.55;;;0.90;;
71975;SDS011;60680;52.182;5.398;2022-09-29T13:43:39;2.45;;;0.90;;
71975;SDS011;60680;52.182;5.398;2022-09-29T13:48:52;2.70;;;1.17;;
71975;SDS011;60680;52.182;5.398;2022-09-29T13:51:28;1.92;;;0.88;;
71975;SDS011;60680;52.182;5.398;2022-09-29T13:59:35;3.22;;;1.17;;
71975;SDS011;60680;52.182;5.398;2022-09-29T14:04:58;4.43;;;1.33;;
71975;SDS011;60680;52.182;5.398;2022-09-29T14:10:13;4.20;;;2.00;;
71975;SDS011;60680;52.182;5.398;2022-09-29T14:13:04;4.15;;;2.33;;
71975;SDS011;60680;52.182;5.398;2022-09-29T14:15:35;2.40;;;1.20;;
71975;SDS011;60680;52.182;5.398;2022-09-29T14:18:16;3.08;;;1.30;;
71975;SDS011;60680;52.182;5.398;2022-09-29T14:21:10;3.45;;;1.08;;
71975;SDS011;60680;52.182;5.398;2022-09-29T14:29:21;2.37;;;0.70;;
71975;SDS011;60680;52.182;5.398;2022-09-29T14:31:53;1.63;;;0.68;;
71975;SDS011;60680;52.182;5.398;2022-09-29T14:34:23;0.80;;;0.30;;
71975;SDS011;60680;52.182;5.398;2022-09-29T14:36:54;0.88;;;0.20;;
71975;SDS011;60680;52.182;5.398;2022-09-29T14:39:23;0.98;;;0.17;;
71975;SDS011;60680;52.182;5.398;2022-09-29T14:41:52;1.40;;;0.20;;
71975;SDS011;60680;52.182;5.398;2022-09-29T14:50:23;0.73;;;0.20;;
71975;SDS011;60680;52.182;5.398;2022-09-29T15:01:28;0.93;;;0.32;;
71975;SDS011;60680;52.182;5.398;2022-09-29T15:03:57;1.17;;;0.30;;
71975;SDS011;60680;52.182;5.398;2022-09-29T15:06:32;2.58;;;0.25;;
71975;SDS011;60680;52.182;5.398;2022-09-29T15:09:01;0.50;;;0.20;;
71975;SDS011;60680;52.182;5.398;2022-09-29T15:11:43;0.98;;;0.20;;
71975;SDS011;60680;52.182;5.398;2022-09-29T15:14:30;1.60;;;0.35;;
71975;SDS011;60680;52.182;5.398;2022-09-29T15:17:06;1.45;;;0.30;;
71975;SDS011;60680;52.182;5.398;2022-09-29T15:25:39;0.98;;;0.40;;
71975;SDS011;60680;52.182;5.398;2022-09-29T15:30:41;1.30;;;0.40;;
71975;SDS011;60680;52.182;5.398;2022-09-29T15:33:22;1.02;;;0.40;;
71975;SDS011;60680;52.182;5.398;2022-09-29T15:35:53;0.70;;;0.20;;
71975;SDS011;60680;52.182;5.398;2022-09-29T15:40:53;1.23;;;0.40;;
71975;SDS011;60680;52.182;5.398;2022-09-29T15:43:22;0.95;;;0.40;;
71975;SDS011;60680;52.182;5.398;2022-09-29T15:45:54;0.82;;;0.32;;
71975;SDS011;60680;52.182;5.398;2022-09-29T15:48:26;1.33;;;0.30;;
71975;SDS011;60680;52.182;5.398;2022-09-29T15:50:53;2.13;;;0.40;;
71975;SDS011;60680;52.182;5.398;2022-09-29T15:53:21;1.98;;;0.65;;
71975;SDS011;60680;52.182;5.398;2022-09-29T15:55:53;3.58;;;1.40;;
71975;SDS011;60680;52.182;5.398;2022-09-29T16:00:59;2.43;;;0.87;;
71975;SDS011;60680;52.182;5.398;2022-09-29T16:06:30;1.40;;;0.40;;
71975;SDS011;60680;52.182;5.398;2022-09-29T16:09:05;1.17;;;0.38;;
71975;SDS011;60680;52.182;5.398;2022-09-29T16:11:47;1.35;;;0.50;;
71975;SDS011;60680;52.182;5.398;2022-09-29T16:14:21;2.40;;;0.40;;
71975;SDS011;60680;52.182;5.398;2022-09-29T16:16:51;1.35;;;0.50;;
71975;SDS011;60680;52.182;5.398;2022-09-29T16:19:26;2.08;;;0.50;;
71975;SDS011;60680;52.182;5.398;2022-09-29T16:21:56;2.08;;;0.65;;
71975;SDS011;60680;52.182;5.398;2022-09-29T16:24:26;1.65;;;0.60;;
71975;SDS011;60680;52.182;5.398;2022-09-29T16:26:57;1.43;;;0.73;;
71975;SDS011;60680;52.182;5.398;2022-09-29T16:29:25;2.10;;;0.57;;
71975;SDS011;60680;52.182;5.398;2022-09-29T16:31:52;2.72;;;0.60;;
71975;SDS011;60680;52.182;5.398;2022-09-29T16:34:21;1.88;;;0.63;;
71975;SDS011;60680;52.182;5.398;2022-09-29T16:39:32;2.37;;;1.13;;
71975;SDS011;60680;52.182;5.398;2022-09-29T16:42:13;1.90;;;0.80;;
71975;SDS011;60680;52.182;5.398;2022-09-29T16:44:44;2.63;;;0.85;;
71975;SDS011;60680;52.182;5.398;2022-09-29T16:47:22;2.95;;;0.80;;
71975;SDS011;60680;52.182;5.398;2022-09-29T16:49:55;2.65;;;0.80;;
71975;SDS011;60680;52.182;5.398;2022-09-29T16:52:43;2.23;;;0.97;;
71975;SDS011;60680;52.182;5.398;2022-09-29T16:55:16;2.58;;;0.88;;
71975;SDS011;60680;52.182;5.398;2022-09-29T16:58:00;1.50;;;0.60;;
71975;SDS011;60680;52.182;5.398;2022-09-29T17:00:30;2.33;;;1.25;;
71975;SDS011;60680;52.182;5.398;2022-09-29T17:02:56;1.77;;;0.85;;
71975;SDS011;60680;52.182;5.398;2022-09-29T17:05:23;2.07;;;0.90;;
71975;SDS011;60680;52.182;5.398;2022-09-29T17:07:58;2.42;;;0.90;;
71975;SDS011;60680;52.182;5.398;2022-09-29T17:10:26;2.75;;;1.30;;
71975;SDS011;60680;52.182;5.398;2022-09-29T17:12:52;2.25;;;1.05;;
71975;SDS011;60680;52.182;5.398;2022-09-29T17:15:20;2.75;;;1.63;;
71975;SDS011;60680;52.182;5.398;2022-09-29T17:17:48;4.03;;;2.10;;
71975;SDS011;60680;52.182;5.398;2022-09-29T17:20:16;2.95;;;1.58;;
71975;SDS011;60680;52.182;5.398;2022-09-29T17:22:45;2.83;;;1.60;;
71975;SDS011;60680;52.182;5.398;2022-09-29T17:25:13;2.55;;;1.42;;
71975;SDS011;60680;52.182;5.398;2022-09-29T17:27:41;4.32;;;1.58;;
71975;SDS011;60680;52.182;5.398;2022-09-29T17:30:27;2.30;;;1.03;;
71975;SDS011;60680;52.182;5.398;2022-09-29T17:32:54;4.18;;;1.42;;
71975;SDS011;60680;52.182;5.398;2022-09-29T17:35:24;2.45;;;1.20;;
71975;SDS011;60680;52.182;5.398;2022-09-29T17:37:53;3.50;;;1.75;;
71975;SDS011;60680;52.182;5.398;2022-09-29T17:40:43;4.63;;;2.53;;
71975;SDS011;60680;52.182;5.398;2022-09-29T17:43:31;6.03;;;4.10;;
71975;SDS011;60680;52.182;5.398;2022-09-29T17:45:59;5.43;;;3.83;;
71975;SDS011;60680;52.182;5.398;2022-09-29T17:48:27;5.55;;;3.65;;
71975;SDS011;60680;52.182;5.398;2022-09-29T17:50:54;5.75;;;3.83;;
71975;SDS011;60680;52.182;5.398;2022-09-29T17:53:23;5.00;;;3.53;;
71975;SDS011;60680;52.182;5.398;2022-09-29T17:55:52;5.37;;;3.30;;
71975;SDS011;60680;52.182;5.398;2022-09-29T17:58:21;8.10;;;4.00;;
71975;SDS011;60680;52.182;5.398;2022-09-29T18:00:51;5.40;;;3.58;;
71975;SDS011;60680;52.182;5.398;2022-09-29T18:03:20;9.48;;;5.88;;
71975;SDS011;60680;52.182;5.398;2022-09-29T18:05:48;6.78;;;5.47;;
71975;SDS011;60680;52.182;5.398;2022-09-29T18:08:25;8.23;;;5.13;;
71975;SDS011;60680;52.182;5.398;2022-09-29T18:10:55;8.55;;;5.07;;
71975;SDS011;60680;52.182;5.398;2022-09-29T18:13:23;9.02;;;4.50;;
71975;SDS011;60680;52.182;5.398;2022-09-29T18:15:53;6.78;;;4.05;;
71975;SDS011;60680;52.182;5.398;2022-09-29T18:18:20;7.35;;;4.63;;
71975;SDS011;60680;52.182;5.398;2022-09-29T18:20:48;12.80;;;6.63;;
71975;SDS011;60680;52.182;5.398;2022-09-29T18:23:15;9.43;;;5.93;;